createdAt,value
2022-12-14T00:02:07.484Z,24.33
2022-12-14T00:04:35.873Z,25.43
2022-12-14T00:07:04.641Z,19.03
2022-12-14T00:09:34.243Z,23.77
2022-12-14T00:12:02.851Z,21.57
2022-12-14T00:14:31.074Z,18.37
2022-12-14T00:16:59.696Z,23.83
2022-12-14T00:19:28.148Z,22.80
2022-12-14T00:21:56.651Z,20.57
2022-12-14T00:24:25.640Z,17.63
2022-12-14T00:26:55.488Z,17.97
2022-12-14T00:29:23.755Z,24.10
2022-12-14T00:31:52.336Z,20.87
2022-12-14T00:34:20.721Z,27.33
2022-12-14T00:36:49.282Z,22.33
2022-12-14T00:39:17.558Z,24.40
2022-12-14T00:41:46.108Z,21.83
2022-12-14T00:44:15.730Z,20.17
2022-12-14T00:46:44.508Z,15.33
2022-12-14T00:49:13.083Z,17.13
2022-12-14T00:51:41.619Z,25.50
2022-12-14T00:54:09.961Z,20.83
2022-12-14T00:56:38.482Z,19.87
2022-12-14T00:59:06.993Z,24.40
2022-12-14T01:01:37.368Z,25.80
2022-12-14T01:04:18.621Z,26.67
2022-12-14T01:06:49.070Z,29.13
2022-12-14T01:09:17.756Z,24.63
2022-12-14T01:11:46.820Z,27.03
2022-12-14T01:14:16.965Z,26.50
2022-12-14T01:16:47.335Z,17.87
2022-12-14T01:19:16.501Z,32.20
2022-12-14T01:21:44.978Z,26.80
2022-12-14T01:24:13.290Z,23.30
2022-12-14T01:26:41.986Z,26.30
2022-12-14T01:29:11.700Z,24.37
2022-12-14T01:31:40.310Z,24.33
2022-12-14T01:34:11.045Z,29.77
2022-12-14T01:36:40.231Z,21.30
2022-12-14T01:39:13.545Z,27.87
2022-12-14T01:41:44.715Z,32.97
2022-12-14T01:44:52.228Z,23.30
2022-12-14T01:47:26.474Z,32.70
2022-12-14T01:50:00.991Z,29.80
2022-12-14T01:52:35.007Z,26.83
2022-12-14T01:55:06.664Z,30.87
2022-12-14T01:57:39.633Z,36.17
2022-12-14T02:00:10.342Z,29.43
2022-12-14T02:02:41.769Z,41.23
2022-12-14T02:05:14.155Z,25.17
2022-12-14T02:07:49.063Z,25.03
2022-12-14T02:10:18.697Z,20.73
2022-12-14T02:12:51.280Z,31.27
2022-12-14T02:15:19.755Z,34.40
2022-12-14T02:17:49.533Z,25.70
2022-12-14T02:20:20.614Z,30.50
2022-12-14T02:23:25.329Z,29.07
2022-12-14T02:26:24.075Z,20.90
2022-12-14T02:29:31.150Z,26.27
2022-12-14T02:32:10.721Z,28.03
2022-12-14T02:34:52.773Z,28.63
2022-12-14T02:37:26.680Z,31.07
2022-12-14T02:40:06.448Z,37.20
2022-12-14T02:42:45.790Z,31.50
2022-12-14T02:45:22.173Z,30.50
2022-12-14T02:47:54.733Z,21.03
2022-12-14T02:50:29.466Z,27.60
2022-12-14T02:53:04.601Z,26.20
2022-12-14T02:55:37.276Z,28.50
2022-12-14T02:58:08.829Z,32.03
2022-12-14T03:00:39.782Z,31.27
2022-12-14T03:03:08.703Z,23.83
2022-12-14T03:05:37.625Z,33.10
2022-12-14T03:08:09.210Z,25.03
2022-12-14T03:10:44.133Z,30.90
2022-12-14T03:13:20.063Z,30.47
2022-12-14T03:15:56.210Z,30.87
2022-12-14T03:18:28.660Z,26.43
2022-12-14T03:21:00.606Z,32.63
2022-12-14T03:23:33.790Z,30.37
2022-12-14T03:26:09.259Z,29.77
2022-12-14T03:28:45.624Z,32.33
2022-12-14T03:31:20.392Z,23.43
2022-12-14T03:33:51.499Z,24.83
2022-12-14T03:36:26.702Z,29.20
2022-12-14T03:38:59.374Z,35.27
2022-12-14T03:41:35.643Z,30.33
2022-12-14T03:44:17.132Z,32.73
2022-12-14T03:46:57.278Z,29.67
2022-12-14T03:49:38.970Z,25.93
2022-12-14T03:52:15.342Z,40.37
2022-12-14T03:54:52.506Z,38.37
2022-12-14T03:57:34.349Z,26.10
2022-12-14T04:00:07.744Z,24.03
2022-12-14T04:02:46.328Z,28.30
2022-12-14T04:05:19.368Z,36.37
2022-12-14T04:07:57.118Z,35.43
2022-12-14T04:10:47.280Z,33.60
2022-12-14T04:13:38.171Z,22.87
2022-12-14T04:16:30.167Z,27.00
2022-12-14T04:19:03.987Z,27.73
2022-12-14T04:21:39.928Z,26.37
2022-12-14T04:24:30.856Z,24.93
2022-12-14T04:27:05.335Z,27.30
2022-12-14T04:29:52.494Z,34.13
2022-12-14T04:32:24.172Z,34.47
2022-12-14T04:34:58.510Z,27.13
2022-12-14T04:37:29.708Z,31.27
2022-12-14T04:40:05.290Z,33.40
2022-12-14T04:42:37.049Z,24.80
2022-12-14T04:45:10.501Z,24.17
2022-12-14T04:47:46.965Z,34.93
2022-12-14T04:50:22.035Z,32.10
2022-12-14T04:52:55.290Z,31.93
2022-12-14T04:55:30.777Z,30.97
2022-12-14T04:58:03.116Z,40.03
2022-12-14T05:00:37.026Z,29.97
2022-12-14T05:03:22.692Z,34.93
2022-12-14T05:06:00.316Z,44.27
2022-12-14T05:08:54.405Z,41.40
2022-12-14T05:14:22.204Z,37.10
2022-12-14T05:16:51.678Z,34.03
2022-12-14T05:19:20.077Z,46.93
2022-12-14T05:21:50.172Z,38.10
2022-12-14T05:24:18.736Z,30.87
2022-12-14T05:26:47.303Z,38.60
2022-12-14T05:29:17.856Z,47.20
2022-12-14T05:31:49.190Z,38.27
2022-12-14T05:34:18.468Z,42.33
2022-12-14T05:36:47.057Z,33.20
2022-12-14T05:39:17.728Z,44.97
2022-12-14T05:41:46.403Z,40.50
2022-12-14T05:44:14.928Z,44.17
2022-12-14T05:46:43.416Z,36.50
2022-12-14T05:49:12.004Z,34.23
2022-12-14T05:51:40.747Z,38.67
2022-12-14T05:54:09.050Z,34.50
2022-12-14T05:56:38.945Z,49.33
2022-12-14T05:59:07.462Z,37.10
2022-12-14T06:01:36.070Z,48.07
2022-12-14T06:04:04.476Z,36.80
2022-12-14T06:06:34.407Z,41.43
2022-12-14T06:09:02.743Z,56.70
2022-12-14T06:11:31.348Z,42.60
2022-12-14T06:14:01.015Z,51.90
2022-12-14T06:16:29.604Z,39.47
2022-12-14T06:18:59.890Z,44.73
2022-12-14T06:21:30.405Z,45.70
2022-12-14T06:23:59.605Z,43.63
2022-12-14T06:26:29.912Z,57.23
2022-12-14T06:29:00.370Z,46.80
2022-12-14T06:31:31.168Z,38.40
2022-12-14T06:34:01.737Z,52.40
2022-12-14T06:36:32.362Z,53.37
2022-12-14T06:39:02.804Z,49.07
2022-12-14T06:41:31.533Z,49.87
2022-12-14T06:44:06.842Z,56.67
2022-12-14T06:46:37.200Z,60.03
2022-12-14T06:49:06.742Z,49.03
2022-12-14T06:51:40.879Z,54.63
2022-12-14T06:54:11.733Z,52.27
2022-12-14T06:56:41.008Z,50.70
2022-12-14T06:59:11.932Z,48.97
2022-12-14T07:01:41.258Z,41.40
2022-12-14T07:04:10.919Z,44.37
2022-12-14T07:06:41.906Z,47.90
2022-12-14T07:09:13.382Z,44.77
2022-12-14T07:11:43.209Z,55.17
2022-12-14T07:14:17.128Z,42.07
2022-12-14T07:16:48.654Z,44.20
2022-12-14T07:19:18.092Z,43.93
2022-12-14T07:21:46.736Z,46.33
2022-12-14T07:24:15.145Z,42.90
2022-12-14T07:26:43.866Z,37.10
2022-12-14T07:29:15.174Z,43.37
2022-12-14T07:31:43.853Z,35.93
2022-12-14T07:34:18.091Z,43.93
2022-12-14T07:36:46.987Z,32.87
2022-12-14T07:39:15.601Z,35.40
2022-12-14T07:41:45.567Z,29.63
2022-12-14T07:44:15.721Z,30.00
2022-12-14T07:46:45.636Z,37.03
2022-12-14T07:49:14.495Z,31.03
2022-12-14T07:51:44.305Z,27.63
2022-12-14T07:54:13.820Z,30.83
2022-12-14T07:56:44.724Z,30.30
2022-12-14T07:59:16.398Z,29.03
2022-12-14T08:01:46.001Z,25.57
2022-12-14T08:04:16.422Z,21.47
2022-12-14T08:06:46.908Z,34.90
2022-12-14T08:09:16.774Z,30.67
2022-12-14T08:11:45.700Z,28.53
2022-12-14T08:14:18.267Z,31.23
2022-12-14T08:16:48.384Z,32.03
2022-12-14T08:19:17.772Z,23.17
2022-12-14T08:21:46.485Z,22.43
2022-12-14T08:24:16.788Z,24.43
2022-12-14T08:26:49.168Z,26.77
2022-12-14T08:29:19.989Z,30.50
2022-12-14T08:31:48.856Z,25.43
2022-12-14T08:34:22.861Z,24.60
2022-12-14T08:36:51.922Z,24.90
2022-12-14T08:39:20.385Z,25.80
2022-12-14T08:41:48.956Z,25.10
2022-12-14T08:44:18.761Z,28.70
2022-12-14T08:46:49.141Z,29.10
2022-12-14T08:49:17.677Z,22.67
2022-12-14T08:51:46.242Z,22.83
2022-12-14T08:54:14.509Z,22.50
2022-12-14T08:56:43.131Z,26.63
2022-12-14T08:59:29.974Z,23.93
2022-12-14T09:02:01.642Z,26.87
2022-12-14T09:04:30.247Z,21.80
2022-12-14T09:06:59.020Z,28.37
2022-12-14T09:09:27.471Z,26.97
2022-12-14T09:11:56.093Z,24.07
2022-12-14T09:14:24.417Z,32.90
2022-12-14T09:16:52.921Z,30.00
2022-12-14T09:19:22.885Z,25.60
2022-12-14T09:21:51.525Z,31.50
2022-12-14T09:24:20.372Z,26.73
2022-12-14T09:26:49.280Z,28.30
2022-12-14T09:29:19.363Z,29.73
2022-12-14T09:31:48.202Z,30.23
2022-12-14T09:34:16.872Z,38.57
2022-12-14T09:36:46.969Z,32.83
2022-12-14T09:39:15.506Z,43.37
2022-12-14T09:42:02.920Z,44.03
2022-12-14T09:44:44.584Z,42.17
2022-12-14T09:47:18.938Z,42.30
2022-12-14T09:49:50.861Z,43.80
2022-12-14T09:52:24.821Z,33.20
2022-12-14T09:54:54.901Z,32.67
2022-12-14T09:57:30.114Z,35.47
2022-12-14T09:59:58.507Z,35.23
2022-12-14T10:02:41.786Z,31.97
2022-12-14T10:05:42.267Z,43.37
2022-12-14T10:08:21.785Z,38.23
2022-12-14T10:10:59.487Z,39.70
2022-12-14T10:13:39.473Z,39.80
2022-12-14T10:16:16.389Z,42.90
2022-12-14T10:19:09.463Z,38.60
2022-12-14T10:21:47.355Z,41.23
2022-12-14T10:24:25.383Z,37.47
2022-12-14T10:26:56.200Z,40.20
2022-12-14T10:29:33.234Z,51.20
2022-12-14T10:32:13.720Z,43.70
2022-12-14T10:34:43.626Z,43.90
2022-12-14T10:37:25.809Z,48.33
2022-12-14T10:40:24.738Z,42.73
2022-12-14T10:43:14.474Z,45.40
2022-12-14T10:45:50.485Z,36.00
2022-12-14T10:48:40.196Z,38.90
2022-12-14T10:51:12.081Z,41.63
2022-12-14T10:53:45.944Z,40.77
2022-12-14T10:56:21.944Z,36.37
2022-12-14T10:59:26.499Z,46.03
2022-12-14T11:02:00.558Z,31.43
2022-12-14T11:04:32.729Z,35.23
2022-12-14T11:07:03.138Z,38.60
2022-12-14T11:09:32.009Z,33.97
2022-12-14T11:12:05.373Z,36.60
2022-12-14T11:14:34.260Z,33.27
2022-12-14T11:17:02.909Z,35.93
2022-12-14T11:19:31.330Z,36.87
2022-12-14T11:22:18.685Z,36.17
2022-12-14T11:24:51.412Z,36.30
2022-12-14T11:27:22.858Z,35.03
2022-12-14T11:29:52.247Z,33.50
2022-12-14T11:32:25.408Z,32.83
2022-12-14T11:34:59.331Z,31.17
2022-12-14T11:37:30.018Z,29.93
2022-12-14T11:40:01.563Z,43.53
2022-12-14T11:42:32.148Z,33.50
2022-12-14T11:45:20.946Z,34.53
2022-12-14T11:48:20.055Z,37.63
2022-12-14T11:50:49.533Z,28.47
2022-12-14T11:53:19.777Z,30.10
2022-12-14T11:55:53.763Z,47.47
2022-12-14T11:58:26.416Z,43.40
2022-12-14T12:01:00.377Z,30.10
2022-12-14T12:03:36.064Z,34.33
2022-12-14T12:06:08.565Z,34.47
2022-12-14T12:08:40.254Z,39.17
2022-12-14T12:11:17.459Z,34.87
2022-12-14T12:13:48.376Z,34.77
2022-12-14T12:16:20.104Z,30.77
2022-12-14T12:18:53.904Z,34.63
2022-12-14T12:21:26.060Z,30.07
2022-12-14T12:24:00.247Z,33.07
2022-12-14T12:26:33.007Z,31.23
2022-12-14T12:29:07.953Z,34.93
2022-12-14T12:31:41.600Z,36.37
2022-12-14T12:34:17.104Z,37.07
2022-12-14T12:37:24.205Z,42.90
2022-12-14T12:39:36.760Z,33.70
2022-12-14T12:42:17.900Z,44.00
2022-12-14T12:44:51.853Z,50.43
2022-12-14T12:47:32.057Z,31.63
2022-12-14T12:50:15.633Z,42.37
2022-12-14T12:52:57.929Z,41.07
2022-12-14T12:55:35.380Z,39.40
2022-12-14T12:58:09.924Z,41.47
2022-12-14T13:00:41.248Z,37.20
2022-12-14T13:03:18.537Z,40.70
2022-12-14T13:05:49.462Z,34.77
2022-12-14T13:08:27.477Z,36.70
2022-12-14T13:13:51.362Z,30.87
2022-12-14T13:16:27.400Z,38.77
2022-12-14T13:19:19.105Z,39.23
2022-12-14T13:21:54.297Z,38.63
2022-12-14T13:24:25.055Z,39.70
2022-12-14T13:27:34.560Z,38.93
2022-12-14T13:30:23.171Z,45.43
2022-12-14T13:33:08.200Z,38.37
2022-12-14T13:35:59.690Z,43.87
2022-12-14T13:38:50.624Z,43.83
2022-12-14T13:41:33.512Z,40.03
2022-12-14T13:44:19.205Z,45.27
2022-12-14T13:46:57.216Z,50.07
2022-12-14T13:49:26.435Z,42.00
2022-12-14T13:51:55.371Z,36.37
2022-12-14T13:54:29.123Z,49.53
2022-12-14T13:57:06.444Z,50.13
2022-12-14T13:59:39.457Z,53.60
2022-12-14T14:02:30.597Z,41.53
2022-12-14T14:05:45.533Z,37.97
2022-12-14T14:08:37.701Z,34.40
2022-12-14T14:12:01.704Z,45.37
2022-12-14T14:14:47.613Z,37.73
2022-12-14T14:17:25.447Z,40.73
2022-12-14T14:19:56.062Z,41.37
2022-12-14T14:22:27.296Z,30.83
2022-12-14T14:24:59.002Z,45.47
2022-12-14T14:27:37.075Z,44.97
2022-12-14T14:30:27.095Z,40.13
2022-12-14T14:33:20.092Z,36.80
2022-12-14T14:35:49.646Z,34.93
2022-12-14T14:38:27.008Z,43.67
2022-12-14T14:41:16.217Z,34.33
2022-12-14T14:43:51.698Z,41.43
2022-12-14T14:46:32.508Z,35.27
2022-12-14T14:49:02.029Z,42.70
2022-12-14T14:51:35.386Z,50.30
2022-12-14T14:55:10.771Z,45.73
2022-12-14T14:57:36.148Z,41.07
2022-12-14T15:00:07.110Z,49.87
2022-12-14T15:02:42.272Z,32.10
2022-12-14T15:08:18.091Z,36.97
2022-12-14T15:10:47.756Z,54.37
2022-12-14T15:13:20.992Z,35.47
2022-12-14T15:15:53.241Z,37.13
2022-12-14T15:18:25.754Z,36.87
2022-12-14T15:21:01.902Z,49.10
2022-12-14T15:23:36.692Z,53.83
2022-12-14T15:26:16.590Z,67.33
2022-12-14T15:28:49.563Z,67.77
2022-12-14T15:31:19.539Z,60.53
2022-12-14T15:33:49.625Z,51.70
2022-12-14T15:36:20.798Z,61.37
2022-12-14T15:38:53.899Z,62.40
2022-12-14T15:41:25.607Z,46.57
2022-12-14T15:43:59.599Z,54.57
2022-12-14T15:46:30.344Z,49.33
2022-12-14T15:49:01.586Z,54.33
2022-12-14T15:51:34.104Z,55.60
2022-12-14T15:54:03.804Z,50.20
2022-12-14T15:56:35.463Z,55.80
2022-12-14T15:59:08.306Z,51.93
2022-12-14T16:01:46.180Z,48.47
2022-12-14T16:04:23.773Z,45.10
2022-12-14T16:06:57.278Z,51.60
2022-12-14T16:09:29.606Z,39.93
2022-12-14T16:12:00.678Z,48.83
2022-12-14T16:14:35.165Z,44.03
2022-12-14T16:17:05.606Z,50.67
2022-12-14T16:19:57.374Z,47.83
2022-12-14T16:22:28.339Z,56.30
2022-12-14T16:25:19.140Z,47.93
2022-12-14T16:27:51.012Z,57.57
2022-12-14T16:30:26.340Z,55.37
2022-12-14T16:33:08.613Z,58.17
2022-12-14T16:35:39.395Z,62.80
2022-12-14T16:38:09.799Z,69.77
2022-12-14T16:40:40.670Z,57.03
2022-12-14T16:43:26.656Z,51.03
2022-12-14T16:46:14.830Z,72.30
2022-12-14T16:48:50.085Z,87.83
2022-12-14T16:54:28.352Z,79.60
2022-12-14T16:57:04.098Z,78.97
2022-12-14T16:59:41.245Z,63.87
2022-12-14T17:02:28.196Z,69.23
2022-12-14T17:04:59.648Z,64.13
2022-12-14T17:07:32.064Z,69.97
2022-12-14T17:10:01.033Z,74.70
2022-12-14T17:12:29.411Z,64.73
2022-12-14T17:14:57.997Z,79.17
2022-12-14T17:17:32.009Z,78.47
2022-12-14T17:20:00.834Z,84.13
2022-12-14T17:22:33.722Z,85.23
2022-12-14T17:25:02.676Z,72.83
2022-12-14T17:27:31.322Z,89.07
2022-12-14T17:29:59.835Z,82.20
2022-12-14T17:32:31.259Z,92.93
2022-12-14T17:35:00.289Z,94.23
2022-12-14T17:37:35.950Z,86.90
2022-12-14T17:40:07.646Z,94.20
2022-12-14T17:42:38.642Z,89.23
2022-12-14T17:45:11.144Z,88.57
2022-12-14T17:47:39.416Z,94.00
2022-12-14T17:50:08.714Z,85.30
2022-12-14T17:52:38.348Z,102.73
2022-12-14T17:55:07.735Z,95.30
2022-12-14T17:57:36.013Z,87.97
2022-12-14T18:00:23.827Z,98.17
2022-12-14T18:02:52.868Z,91.23
2022-12-14T18:05:23.395Z,95.57
2022-12-14T18:07:53.294Z,104.37
2022-12-14T18:10:22.621Z,79.57
2022-12-14T18:12:51.187Z,79.67
2022-12-14T18:15:22.446Z,108.73
2022-12-14T18:17:51.692Z,96.30
2022-12-14T18:20:21.217Z,94.97
2022-12-14T18:22:50.034Z,92.23
2022-12-14T18:25:30.095Z,88.93
2022-12-14T18:27:59.636Z,101.77
2022-12-14T18:30:33.278Z,79.27
2022-12-14T18:33:05.257Z,82.37
2022-12-14T18:35:34.913Z,85.87
2022-12-14T18:38:03.091Z,88.80
2022-12-14T18:40:33.195Z,80.43
2022-12-14T18:43:01.534Z,86.47
2022-12-14T18:45:32.348Z,83.80
2022-12-14T18:48:01.386Z,82.10
2022-12-14T18:50:30.439Z,92.50
2022-12-14T18:53:00.808Z,87.00
2022-12-14T18:55:32.295Z,68.90
2022-12-14T18:58:03.692Z,75.30
2022-12-14T19:00:34.730Z,72.80
2022-12-14T19:03:04.454Z,90.93
2022-12-14T19:05:33.310Z,85.00
2022-12-14T19:08:02.035Z,74.17
2022-12-14T19:10:32.642Z,77.40
2022-12-14T19:13:02.372Z,87.97
2022-12-14T19:15:33.481Z,71.60
2022-12-14T19:18:02.045Z,83.77
2022-12-14T19:20:31.004Z,116.23
2022-12-14T19:22:59.340Z,84.73
2022-12-14T19:25:28.312Z,90.23
2022-12-14T19:30:47.595Z,93.27
2022-12-14T19:33:15.870Z,77.87
2022-12-14T19:35:44.951Z,103.30
2022-12-14T19:38:16.340Z,84.87
2022-12-14T19:40:57.803Z,84.40
2022-12-14T19:43:26.326Z,81.80
2022-12-14T19:45:56.405Z,83.37
2022-12-14T19:48:24.913Z,91.97
2022-12-14T19:50:53.674Z,94.97
2022-12-14T19:53:23.989Z,86.63
2022-12-14T19:55:53.611Z,82.57
2022-12-14T19:58:25.005Z,83.53
2022-12-14T20:00:53.915Z,96.30
2022-12-14T20:03:24.232Z,92.40
2022-12-14T20:05:54.036Z,88.00
2022-12-14T20:08:22.940Z,87.83
2022-12-14T20:10:52.736Z,109.17
2022-12-14T20:13:21.376Z,87.07
2022-12-14T20:15:50.964Z,97.27
2022-12-14T20:18:19.491Z,85.90
2022-12-14T20:20:50.297Z,103.37
2022-12-14T20:23:20.408Z,84.03
2022-12-14T20:25:49.145Z,92.60
2022-12-14T20:28:17.605Z,90.03
2022-12-14T20:30:48.288Z,87.03
2022-12-14T20:33:16.495Z,103.23
2022-12-14T20:35:45.026Z,90.87
2022-12-14T20:38:14.765Z,75.73
2022-12-14T20:40:43.297Z,99.03
2022-12-14T20:43:11.778Z,86.70
2022-12-14T20:45:40.979Z,81.40
2022-12-14T20:48:10.032Z,117.00
2022-12-14T20:50:40.789Z,81.20
2022-12-14T20:53:09.583Z,86.57
2022-12-14T20:55:39.397Z,92.53
2022-12-14T20:58:07.691Z,83.93
2022-12-14T21:00:37.049Z,88.17
2022-12-14T21:03:05.548Z,81.50
2022-12-14T21:05:34.306Z,76.50
2022-12-14T21:08:02.610Z,85.00
2022-12-14T21:10:31.400Z,83.03
2022-12-14T21:13:05.779Z,101.83
2022-12-14T21:15:36.587Z,86.63
2022-12-14T21:18:05.207Z,76.00
2022-12-14T21:20:33.850Z,77.77
2022-12-14T21:23:02.266Z,76.67
2022-12-14T21:25:31.009Z,78.60
2022-12-14T21:28:00.784Z,82.70
2022-12-14T21:30:29.640Z,75.67
2022-12-14T21:32:58.667Z,100.20
2022-12-14T21:35:27.241Z,108.13
2022-12-14T21:37:55.572Z,98.77
2022-12-14T21:40:41.669Z,98.27
2022-12-14T21:43:12.831Z,109.77
2022-12-14T21:45:41.353Z,98.33
2022-12-14T21:48:09.613Z,110.60
2022-12-14T21:50:38.151Z,92.53
2022-12-14T21:53:06.374Z,85.03
2022-12-14T21:55:35.070Z,82.03
2022-12-14T21:58:17.126Z,106.57
2022-12-14T22:00:47.115Z,76.27
2022-12-14T22:03:15.637Z,78.80
2022-12-14T22:05:44.184Z,82.37
2022-12-14T22:08:12.510Z,76.97
2022-12-14T22:10:41.102Z,86.03
2022-12-14T22:13:09.321Z,91.20
2022-12-14T22:15:37.807Z,76.00
2022-12-14T22:18:07.531Z,81.93
2022-12-14T22:20:36.148Z,65.13
2022-12-14T22:23:04.518Z,77.67
2022-12-14T22:25:33.224Z,68.47
2022-12-14T22:28:01.516Z,70.60
2022-12-14T22:30:32.075Z,82.33
2022-12-14T22:33:00.342Z,77.10
2022-12-14T22:35:30.297Z,70.77
2022-12-14T22:37:59.672Z,80.93
2022-12-14T22:40:28.628Z,70.87
2022-12-14T22:42:56.944Z,81.67
2022-12-14T22:45:25.521Z,61.93
2022-12-14T22:47:54.091Z,68.60
2022-12-14T22:50:22.665Z,71.27
2022-12-14T22:52:52.238Z,76.37
2022-12-14T22:55:21.097Z,61.07
2022-12-14T22:57:49.528Z,76.67
2022-12-14T23:00:18.320Z,74.40
2022-12-14T23:02:48.443Z,76.00
2022-12-14T23:05:18.622Z,77.73
2022-12-14T23:07:47.535Z,82.83
2022-12-14T23:10:35.356Z,72.30
2022-12-14T23:13:21.195Z,70.37
2022-12-14T23:16:07.221Z,76.57
2022-12-14T23:18:52.897Z,74.90
2022-12-14T23:21:39.452Z,70.37
2022-12-14T23:24:25.747Z,86.90
2022-12-14T23:27:12.954Z,80.57
2022-12-14T23:29:58.697Z,80.33
2022-12-14T23:32:44.729Z,80.17
2022-12-14T23:35:30.734Z,65.93
2022-12-14T23:38:22.655Z,83.83
2022-12-14T23:41:08.778Z,85.17
2022-12-14T23:43:56.403Z,77.60
2022-12-14T23:46:42.370Z,81.93
2022-12-14T23:49:28.758Z,79.23
2022-12-14T23:52:14.681Z,90.37
2022-12-14T23:55:00.906Z,81.20
2022-12-14T23:57:46.762Z,79.27
